Time;durP1;ratioP1;P1;durP2;ratioP2;P2;SDS_P1;SDS_P2;PMS_P1;PMS_P2;Temp;Humidity;BMP_temperature;BMP_pressure;BME280_temperature;BME280_humidity;BME280_pressure;Samples;Min_cycle;Max_cycle;Signal;HPM_P1;HPM_P2
2023/08/13 00:01:07;;;;;;;6.60;4.20;;;;;;;20.59;56.25;99576.00;4483278;32;34212;-85
2023/08/13 00:03:35;;;;;;;9.05;4.30;;;;;;;20.56;56.51;99577.84;4483799;32;33029;-87
2023/08/13 00:06:03;;;;;;;6.62;4.25;;;;;;;20.44;56.79;99578.06;4483310;32;34516;-85
2023/08/13 00:08:30;;;;;;;5.57;3.62;;;;;;;20.48;56.76;99583.22;4483293;32;33304;-85
2023/08/13 00:10:58;;;;;;;6.32;3.90;;;;;;;20.48;56.54;99569.19;4483453;32;34462;-86
2023/08/13 00:13:25;;;;;;;5.65;3.80;;;;;;;20.39;57.00;99575.53;4483328;32;34022;-86
2023/08/13 00:15:53;;;;;;;8.23;4.22;;;;;;;20.40;56.95;99575.50;4483015;32;34425;-84
2023/08/13 00:18:20;;;;;;;7.72;4.12;;;;;;;20.34;57.09;99578.28;4483372;32;33881;-86
2023/08/13 00:20:48;;;;;;;7.95;4.05;;;;;;;20.25;57.32;99578.44;4483386;32;33606;-84
2023/08/13 00:23:15;;;;;;;5.25;3.60;;;;;;;20.22;57.50;99578.50;4483089;32;33392;-84
2023/08/13 00:25:43;;;;;;;5.95;4.05;;;;;;;20.26;57.30;99581.94;4483132;32;34832;-86
2023/08/13 00:28:11;;;;;;;6.32;4.28;;;;;;;20.23;57.31;99585.53;4483225;32;33970;-86
2023/08/13 00:30:39;;;;;;;7.15;4.22;;;;;;;20.24;57.51;99586.38;4482318;32;34059;-86
2023/08/13 00:33:07;;;;;;;6.43;4.25;;;;;;;20.12;57.82;99587.50;4483560;32;33553;-85
2023/08/13 00:35:35;;;;;;;5.90;3.90;;;;;;;20.08;57.68;99581.41;4483295;32;34221;-84
2023/08/13 00:38:03;;;;;;;7.45;3.72;;;;;;;20.15;57.50;99582.16;4482905;32;34744;-84
2023/08/13 00:40:33;;;;;;;6.00;3.80;;;;;;;20.14;57.30;99576.00;4468561;32;34198;-85
2023/08/13 00:43:02;;;;;;;9.57;4.50;;;;;;;20.12;57.15;99580.47;4483145;32;34432;-86
2023/08/13 00:45:31;;;;;;;6.55;4.25;;;;;;;20.08;57.54;99575.28;4482607;32;34780;-86
2023/08/13 00:47:59;;;;;;;6.78;4.47;;;;;;;20.11;57.66;99573.44;4469181;32;33794;-86
2023/08/13 00:50:27;;;;;;;7.07;4.25;;;;;;;19.99;57.87;99562.28;4478083;32;33949;-84
2023/08/13 00:52:55;;;;;;;6.22;3.47;;;;;;;20.00;57.66;99570.19;4481939;32;33536;-85
2023/08/13 00:55:25;;;;;;;6.43;3.72;;;;;;;20.00;57.52;99569.28;4482743;32;34733;-84
2023/08/13 00:57:52;;;;;;;5.78;3.80;;;;;;;19.91;57.93;99576.47;4481568;32;34246;-86
2023/08/13 01:00:21;;;;;;;7.37;3.75;;;;;;;19.92;58.12;99577.31;4482687;32;34803;-86
2023/08/13 01:02:49;;;;;;;5.60;3.67;;;;;;;19.93;57.89;99572.06;4482906;32;34377;-85
2023/08/13 01:05:17;;;;;;;5.85;4.00;;;;;;;19.91;57.78;99567.69;4482495;32;33969;-86
2023/08/13 01:07:57;;;;;;;6.22;3.72;;;;;;;20.00;57.47;99571.91;4482606;32;34892;-86
2023/08/13 01:10:35;;;;;;;6.05;4.20;;;;;;;20.02;57.50;99575.41;4481471;32;34334;-86
2023/08/13 01:13:22;;;;;;;6.07;4.05;;;;;;;19.97;57.81;99577.25;4482261;32;34127;-85
2023/08/13 01:15:52;;;;;;;6.35;4.10;;;;;;;19.96;57.90;99576.38;4481117;32;33546;-84
2023/08/13 01:18:21;;;;;;;5.35;3.60;;;;;;;19.84;58.14;99572.19;4482663;32;34672;-84
2023/08/13 01:20:49;;;;;;;6.68;3.90;;;;;;;19.84;58.11;99564.31;4480594;32;33994;-86
2023/08/13 01:23:16;;;;;;;5.93;3.50;;;;;;;19.97;57.61;99567.59;4482390;32;34189;-86
2023/08/13 01:25:57;;;;;;;6.43;3.80;;;;;;;19.90;57.81;99577.38;4482454;32;34728;-86
2023/08/13 01:28:53;;;;;;;6.75;4.30;;;;;;;19.95;57.88;99574.63;4482216;32;34248;-86
2023/08/13 01:31:27;;;;;;;5.57;3.60;;;;;;;19.79;58.55;99587.22;4482270;32;33659;-86
2023/08/13 01:33:56;;;;;;;6.80;4.05;;;;;;;19.76;58.42;99581.13;4480986;32;33169;-86
2023/08/13 01:36:25;;;;;;;6.68;3.83;;;;;;;19.76;58.37;99583.78;4480746;32;33431;-85
2023/08/13 01:38:58;;;;;;;6.43;3.90;;;;;;;19.75;58.18;99582.03;4480947;32;35007;-85
2023/08/13 01:41:44;;;;;;;5.85;3.45;;;;;;;19.90;57.43;99582.63;4481858;32;34881;-86
2023/08/13 01:44:12;;;;;;;;;;;;;;;19.98;57.22;99579.84;4482478;32;33299;-84
2023/08/13 01:46:40;;;;;;;6.25;3.97;;;;;;;20.10;57.29;99589.28;4482011;32;33769;-86
2023/08/13 01:49:08;;;;;;;8.60;3.80;;;;;;;20.02;57.52;99589.41;4481970;32;34217;-86
2023/08/13 01:51:35;;;;;;;7.03;3.97;;;;;;;19.94;58.05;99604.50;4482081;32;33943;-86
2023/08/13 01:54:03;;;;;;;5.85;3.42;;;;;;;19.86;58.23;99587.97;4481951;32;33314;-84
2023/08/13 01:56:30;;;;;;;5.57;3.70;;;;;;;19.78;58.54;99593.38;4481897;32;34805;-86
2023/08/13 01:58:58;;;;;;;7.95;4.07;;;;;;;19.87;58.22;99593.19;4482058;32;34649;-85
2023/08/13 02:01:26;;;;;;;7.50;3.80;;;;;;;19.89;57.93;99580.03;4482038;32;34528;-85
2023/08/13 02:03:53;;;;;;;5.70;3.45;;;;;;;19.82;57.80;99581.91;4482618;32;33992;-85
2023/08/13 02:06:21;;;;;;;6.12;3.62;;;;;;;19.88;57.40;99592.28;4484233;32;34574;-84
2023/08/13 02:08:49;;;;;;;6.43;3.50;;;;;;;19.92;56.96;99588.72;4484326;32;34789;-84
2023/08/13 02:11:17;;;;;;;5.72;3.55;;;;;;;19.80;57.37;99591.56;4484472;32;33792;-86
2023/08/13 02:13:44;;;;;;;5.10;3.40;;;;;;;19.72;57.79;99582.94;4484537;32;32758;-85
2023/08/13 02:16:12;;;;;;;5.53;3.62;;;;;;;19.76;57.52;99584.63;4484376;32;34527;-85
2023/08/13 02:18:40;;;;;;;6.15;3.87;;;;;;;19.77;57.34;99588.13;4484030;32;33866;-85
2023/08/13 02:21:08;;;;;;;6.15;4.32;;;;;;;19.68;57.65;99595.28;4483991;32;34866;-84
2023/08/13 02:23:35;;;;;;;5.90;3.42;;;;;;;19.67;57.82;99595.34;4483987;32;33321;-85
2023/08/13 02:26:03;;;;;;;5.65;3.62;;;;;;;19.58;58.09;99595.44;4484057;32;34761;-86
2023/08/13 02:28:30;;;;;;;5.30;3.45;;;;;;;19.54;58.07;99589.34;4484014;32;34187;-86
2023/08/13 02:30:58;;;;;;;6.32;3.42;;;;;;;19.59;57.62;99592.81;4483522;32;34414;-84
2023/08/13 02:33:26;;;;;;;5.68;3.90;;;;;;;19.63;57.55;99598.91;4483951;32;33480;-83
2023/08/13 02:35:53;;;;;;;5.20;3.28;;;;;;;19.52;57.86;99600.81;4483929;32;33826;-85
2023/08/13 02:38:21;;;;;;;5.47;3.50;;;;;;;19.62;57.40;99591.91;4483812;32;34176;-86
2023/08/13 02:40:49;;;;;;;6.28;3.62;;;;;;;19.57;57.47;99593.72;4483810;32;34792;-84
2023/08/13 02:43:16;;;;;;;5.35;3.62;;;;;;;19.49;57.92;99590.34;4484033;32;33586;-86
2023/08/13 02:45:44;;;;;;;9.07;3.90;;;;;;;19.37;58.19;99597.53;4483998;32;33883;-85
2023/08/13 02:48:11;;;;;;;5.43;3.75;;;;;;;19.39;58.35;99595.75;4483798;32;34062;-84
2023/08/13 02:50:39;;;;;;;6.07;3.62;;;;;;;19.56;58.25;99602.50;4483997;32;33974;-85
2023/08/13 02:53:06;;;;;;;6.45;3.87;;;;;;;19.39;58.49;99595.75;4484318;32;33109;-84
2023/08/13 02:55:34;;;;;;;5.75;3.53;;;;;;;19.36;58.20;99590.56;4483832;32;33594;-84
2023/08/13 02:58:02;;;;;;;7.00;3.80;;;;;;;19.39;57.86;99594.88;4483695;32;33641;-86
2023/08/13 03:00:37;;;;;;;5.50;3.70;;;;;;;19.42;57.62;99593.06;4483357;32;34336;-85
2023/08/13 03:03:04;;;;;;;5.53;3.47;;;;;;;19.43;58.00;99592.19;4484251;32;33253;-86
2023/08/13 03:05:32;;;;;;;5.93;3.65;;;;;;;19.36;58.52;99589.69;4483806;32;34017;-85
2023/08/13 03:08:00;;;;;;;6.85;3.85;;;;;;;19.36;58.30;99590.56;4483785;32;33901;-84
2023/08/13 03:10:27;;;;;;;6.50;3.87;;;;;;;19.42;58.20;99584.31;4483415;32;34032;-85
2023/08/13 03:12:55;;;;;;;6.70;3.83;;;;;;;19.32;58.52;99588.87;4483618;32;33431;-85
2023/08/13 03:15:23;;;;;;;8.18;4.43;;;;;;;19.36;58.59;99590.56;4483396;32;34767;-84
2023/08/13 03:17:50;;;;;;;6.40;4.40;;;;;;;19.39;58.62;99592.25;4483701;32;33881;-85
2023/08/13 03:20:18;;;;;;;13.68;5.03;;;;;;;19.36;58.77;99587.94;4483728;32;34382;-85
2023/08/13 03:22:46;;;;;;;7.22;4.78;;;;;;;19.44;58.73;99593.06;4483346;32;33731;-86
2023/08/13 03:25:13;;;;;;;7.75;4.90;;;;;;;19.34;59.11;99594.97;4483332;32;34050;-86
2023/08/13 03:27:42;;;;;;;6.68;5.00;;;;;;;19.45;58.81;99590.41;4483971;32;34157;-85
2023/08/13 03:30:10;;;;;;;7.85;4.80;;;;;;;19.47;58.51;99594.75;4483699;32;34734;-86
2023/08/13 03:32:38;;;;;;;10.77;4.60;;;;;;;19.50;58.46;99590.31;4483819;32;34188;-84
2023/08/13 03:35:06;;;;;;;10.13;4.68;;;;;;;19.45;58.36;99590.41;4483647;32;33888;-84
2023/08/13 03:37:34;;;;;;;6.45;5.20;;;;;;;19.40;58.91;99581.72;4483750;32;33762;-86
2023/08/13 03:40:01;;;;;;;7.87;4.32;;;;;;;19.32;59.36;99585.34;4483546;32;33978;-84
2023/08/13 03:42:29;;;;;;;7.32;4.57;;;;;;;19.36;59.37;99587.94;4483456;32;33117;-86
2023/08/13 03:44:56;;;;;;;6.37;4.35;;;;;;;19.30;59.40;99590.66;4483881;32;33751;-86
2023/08/13 03:47:24;;;;;;;6.40;4.35;;;;;;;19.29;59.49;99583.66;4483686;32;34094;-86
2023/08/13 03:49:51;;;;;;;6.97;4.62;;;;;;;19.32;59.24;99578.34;4483176;32;33629;-86
2023/08/13 03:52:19;;;;;;;7.05;4.55;;;;;;;19.31;59.21;99576.59;4483725;32;33477;-86
2023/08/13 03:54:47;;;;;;;6.70;4.50;;;;;;;19.24;59.47;99574.97;4483633;32;34081;-84
2023/08/13 03:57:15;;;;;;;7.78;4.78;;;;;;;19.19;59.52;99579.44;4483287;32;34719;-86
2023/08/13 03:59:43;;;;;;;7.03;4.35;;;;;;;19.22;59.24;99575.91;4483589;32;34144;-84
2023/08/13 04:02:10;;;;;;;8.48;4.93;;;;;;;19.27;59.08;99581.94;4483286;32;33287;-86
2023/08/13 04:04:38;;;;;;;8.20;4.82;;;;;;;19.27;59.55;99589.81;4483370;32;34422;-85
2023/08/13 04:07:06;;;;;;;8.20;5.12;;;;;;;19.34;59.37;99588.84;4483318;32;34354;-84
2023/08/13 04:09:34;;;;;;;7.25;4.85;;;;;;;19.26;59.80;99588.97;4483315;32;34029;-86
2023/08/13 04:12:02;;;;;;;7.85;5.35;;;;;;;19.34;59.41;99592.31;4483936;32;33815;-84
2023/08/13 04:14:29;;;;;;;9.07;5.50;;;;;;;19.39;59.52;99587.84;4483124;32;33937;-85
2023/08/13 04:16:57;;;;;;;8.77;5.85;;;;;;;19.30;59.97;99582.75;4483469;32;34594;-84
2023/08/13 04:19:25;;;;;;;9.52;6.05;;;;;;;19.36;60.04;99595.81;4483564;32;34515;-85
2023/08/13 04:21:53;;;;;;;7.07;5.37;;;;;;;19.40;60.04;99581.72;4483215;32;33434;-86
2023/08/13 04:24:20;;;;;;;7.97;5.75;;;;;;;19.43;60.60;99591.31;4483204;32;34766;-84
2023/08/13 04:26:48;;;;;;;7.40;5.10;;;;;;;19.54;60.54;99585.88;4483201;32;35081;-85
2023/08/13 04:29:16;;;;;;;8.90;5.25;;;;;;;19.72;60.02;99590.84;4482175;32;33664;-86
2023/08/13 04:31:44;;;;;;;8.73;4.68;;;;;;;19.88;59.58;99589.66;4483222;32;33573;-86
2023/08/13 04:34:12;;;;;;;7.97;5.53;;;;;;;20.17;59.10;99591.75;4483360;32;34736;-86
2023/08/13 04:36:41;;;;;;;7.30;4.95;;;;;;;20.52;58.31;99597.25;4483086;32;33914;-86
2023/08/13 04:39:08;;;;;;;8.27;4.72;;;;;;;20.75;58.23;99596.75;4482864;32;34051;-86
2023/08/13 04:41:37;;;;;;;7.87;3.92;;;;;;;21.23;57.32;99594.78;4483189;32;33424;-86
2023/08/13 04:44:05;;;;;;;5.72;3.97;;;;;;;21.89;55.63;99600.19;4483246;32;34196;-85
2023/08/13 04:46:33;;;;;;;6.22;3.50;;;;;;;21.94;55.06;99593.91;4480738;32;33904;-87
2023/08/13 04:49:01;;;;;;;6.65;4.25;;;;;;;22.47;54.33;99590.69;4483037;32;34700;-86
2023/08/13 04:51:29;;;;;;;6.10;3.83;;;;;;;23.14;52.15;99593.94;4482936;32;33528;-86
2023/08/13 04:53:57;;;;;;;6.20;3.75;;;;;;;23.54;50.65;99593.53;4482612;32;33785;-84
2023/08/13 04:56:25;;;;;;;7.00;3.80;;;;;;;23.72;50.49;99597.37;4481534;32;34083;-86
2023/08/13 04:58:52;;;;;;;5.90;3.78;;;;;;;23.89;50.12;99594.12;4482857;32;33545;-86
2023/08/13 05:01:20;;;;;;;5.95;3.40;;;;;;;24.23;49.09;99590.28;4482596;32;33491;-86
2023/08/13 05:03:48;;;;;;;6.85;3.55;;;;;;;24.46;48.99;99597.44;4483027;32;34204;-85
2023/08/13 05:06:16;;;;;;;6.95;3.80;;;;;;;24.57;48.85;99594.38;4483082;32;34599;-86
2023/08/13 05:08:44;;;;;;;6.03;3.33;;;;;;;24.71;48.41;99602.69;4483155;32;34279;-85
2023/08/13 05:11:12;;;;;;;6.20;3.65;;;;;;;24.86;47.83;99611.84;4482458;32;34287;-85
2023/08/13 05:13:39;;;;;;;6.22;3.53;;;;;;;24.86;48.08;99604.75;4482645;32;34000;-86
2023/08/13 05:16:07;;;;;;;5.80;3.42;;;;;;;25.11;47.70;99603.78;4482247;32;33733;-84
2023/08/13 05:18:35;;;;;;;7.45;3.50;;;;;;;25.20;47.59;99608.75;4482546;32;33995;-86
2023/08/13 05:21:03;;;;;;;7.62;3.50;;;;;;;25.51;46.95;99618.97;4482693;32;33150;-85
2023/08/13 05:23:30;;;;;;;4.60;2.90;;;;;;;25.69;46.46;99614.69;4480980;32;33861;-86
2023/08/13 05:25:58;;;;;;;5.37;3.00;;;;;;;25.63;46.27;99613.16;4482346;32;34928;-84
2023/08/13 05:28:26;;;;;;;5.60;2.67;;;;;;;25.53;46.23;99617.09;4482137;32;33478;-85
2023/08/13 05:30:53;;;;;;;5.82;2.80;;;;;;;25.73;46.85;99619.81;4482249;32;33993;-85
2023/08/13 05:33:22;;;;;;;5.18;3.65;;;;;;;25.93;47.06;99621.63;4482391;32;34665;-85
2023/08/13 05:35:50;;;;;;;7.07;3.05;;;;;;;25.69;47.13;99622.66;4482654;32;34744;-86
2023/08/13 05:38:17;;;;;;;5.25;3.08;;;;;;;25.84;47.31;99630.03;4482651;32;32827;-85
2023/08/13 05:40:47;;;;;;;5.22;2.90;;;;;;;26.14;46.92;99622.53;4484377;32;33916;-86
2023/08/13 05:43:14;;;;;;;5.03;2.67;;;;;;;26.11;47.10;99622.66;4484321;32;34641;-86
2023/08/13 05:45:42;;;;;;;6.62;3.25;;;;;;;25.92;47.47;99629.69;4484743;32;34331;-84
2023/08/13 05:48:10;;;;;;;7.62;3.40;;;;;;;25.98;47.27;99624.09;4484124;32;34241;-85
2023/08/13 05:50:38;;;;;;;5.18;3.05;;;;;;;25.08;49.15;99627.75;4484506;32;33797;-86
2023/08/13 05:53:05;;;;;;;5.18;3.28;;;;;;;25.79;48.53;99624.00;4484620;32;34298;-86
2023/08/13 05:55:33;;;;;;;5.15;3.20;;;;;;;25.52;49.24;99626.00;4484568;32;34136;-87
2023/08/13 05:58:01;;;;;;;5.07;2.90;;;;;;;25.36;49.86;99625.78;4484027;32;33952;-85
2023/08/13 06:00:29;;;;;;;6.82;3.45;;;;;;;25.87;49.30;99624.53;4484581;32;33456;-85
2023/08/13 06:02:57;;;;;;;7.28;3.45;;;;;;;25.61;48.65;99623.00;4484148;32;34229;-84
2023/08/13 06:05:25;;;;;;;6.00;3.62;;;;;;;25.50;50.36;99634.97;4484147;32;34626;-86
2023/08/13 06:07:52;;;;;;;5.32;3.40;;;;;;;25.32;50.73;99629.47;4484480;32;34746;-87
2023/08/13 06:10:20;;;;;;;5.35;3.55;;;;;;;25.25;51.61;99633.31;4484221;32;33532;-85
2023/08/13 06:12:47;;;;;;;5.78;3.37;;;;;;;25.60;50.28;99631.84;4483932;32;34388;-85
2023/08/13 06:15:15;;;;;;;5.60;3.17;;;;;;;25.44;50.28;99638.72;4484446;32;34658;-86
2023/08/13 06:17:46;;;;;;;7.45;3.85;;;;;;;25.49;49.83;99634.09;4469698;32;34261;-87
2023/08/13 06:20:15;;;;;;;5.62;3.35;;;;;;;25.59;48.90;99640.75;4480568;32;33604;-85
2023/08/13 06:22:44;;;;;;;6.37;3.37;;;;;;;25.47;48.42;99633.31;4483990;32;33687;-85
2023/08/13 06:25:11;;;;;;;5.95;3.42;;;;;;;25.45;48.13;99635.16;4483929;32;34214;-86
2023/08/13 06:27:39;;;;;;;5.60;3.28;;;;;;;25.52;49.15;99633.97;4484145;32;33831;-86
2023/08/13 06:30:07;;;;;;;5.15;2.80;;;;;;;25.86;48.79;99637.91;4484067;32;32959;-86
2023/08/13 06:32:37;;;;;;;6.35;2.97;;;;;;;25.18;50.29;99637.97;4483880;32;33793;-87
2023/08/13 06:35:06;;;;;;;6.82;3.53;;;;;;;25.11;50.63;99631.19;4484138;32;34270;-85
2023/08/13 06:37:33;;;;;;;8.52;3.33;;;;;;;25.53;49.90;99638.34;4484024;32;34835;-85
2023/08/13 06:40:17;;;;;;;7.90;3.62;;;;;;;25.27;49.89;99643.84;4484360;32;33295;-86
2023/08/13 06:42:44;;;;;;;7.15;3.30;;;;;;;25.30;50.12;99647.25;4484011;32;33685;-88
2023/08/13 06:45:12;;;;;;;6.87;3.33;;;;;;;25.47;49.19;99646.56;4484342;32;33674;-86
2023/08/13 06:47:40;;;;;;;7.12;3.55;;;;;;;25.56;48.87;99637.38;4483885;32;33993;-87
2023/08/13 06:50:08;;;;;;;5.18;3.00;;;;;;;25.90;47.70;99647.47;4483756;32;33379;-87
2023/08/13 06:52:36;;;;;;;6.35;3.40;;;;;;;25.89;48.45;99649.28;4483280;32;34784;-88
2023/08/13 06:55:04;;;;;;;6.12;2.70;;;;;;;25.93;47.90;99648.22;4484253;32;33819;-87
2023/08/13 06:57:31;;;;;;;5.53;3.35;;;;;;;26.07;47.51;99654.75;4484272;32;34039;-87
2023/08/13 06:59:59;;;;;;;11.45;4.10;;;;;;;26.05;49.12;99646.81;4484109;32;33000;-87
2023/08/13 07:02:27;;;;;;;5.60;2.75;;;;;;;26.60;48.43;99649.75;4483456;32;33895;-86
2023/08/13 07:04:54;;;;;;;8.25;3.50;;;;;;;26.79;46.71;99655.09;4469507;32;33479;-86
2023/08/13 07:07:22;;;;;;;7.37;2.92;;;;;;;26.78;45.21;99657.78;4484057;32;34165;-88
2023/08/13 07:09:51;;;;;;;6.20;3.10;;;;;;;26.86;43.44;99648.53;4484215;32;33625;-88
2023/08/13 07:12:18;;;;;;;5.93;2.87;;;;;;;26.52;45.60;99657.19;4483673;32;34716;-87
2023/08/13 07:14:46;;;;;;;7.93;3.15;;;;;;;26.65;47.27;99658.34;4483781;32;34012;-87
2023/08/13 07:17:13;;;;;;;7.78;3.30;;;;;;;27.12;44.18;99657.13;4483771;32;33794;-87
2023/08/13 07:19:41;;;;;;;5.95;3.15;;;;;;;27.12;45.88;99663.31;4483782;32;33446;-87
2023/08/13 07:22:08;;;;;;;5.68;2.92;;;;;;;27.23;45.00;99668.13;4478531;32;34748;-87
2023/08/13 07:24:36;;;;;;;4.40;2.67;;;;;;;27.65;45.80;99667.84;4468123;32;33822;-86
2023/08/13 07:27:04;;;;;;;5.93;3.08;;;;;;;27.53;42.71;99668.44;4468127;32;33832;-88
2023/08/13 07:29:32;;;;;;;4.90;2.80;;;;;;;27.56;43.35;99668.28;4467687;32;34097;-87
2023/08/13 07:32:00;;;;;;;9.40;2.92;;;;;;;27.88;44.93;99672.06;4444566;32;33712;-88
2023/08/13 07:34:29;;;;;;;5.05;2.70;;;;;;;28.06;43.65;99664.91;4468003;32;33901;-87
2023/08/13 07:36:57;;;;;;;4.72;2.30;;;;;;;27.97;40.55;99661.88;4454260;32;34323;-88
2023/08/13 07:39:24;;;;;;;5.95;2.58;;;;;;;27.75;38.72;99657.63;4481205;32;33309;-85
2023/08/13 07:41:52;;;;;;;4.85;2.62;;;;;;;28.25;39.37;99661.31;4483758;32;33950;-86
2023/08/13 07:44:19;;;;;;;7.32;2.55;;;;;;;28.21;38.13;99655.25;4483252;32;33845;-85
2023/08/13 07:46:50;;;;;;;5.47;2.30;;;;;;;28.23;38.95;99658.72;4483574;32;34572;-85
2023/08/13 07:49:18;;;;;;;5.03;2.35;;;;;;;28.35;40.35;99668.75;4483226;32;33946;-87
2023/08/13 07:51:45;;;;;;;4.37;2.40;;;;;;;28.37;39.42;99658.03;4483328;32;34638;-86
2023/08/13 07:54:13;;;;;;;8.45;2.78;;;;;;;28.52;39.15;99659.88;4483379;32;34026;-85
2023/08/13 07:56:45;;;;;;;4.53;2.35;;;;;;;28.93;37.55;99648.75;4467816;32;35131;-87
2023/08/13 07:59:14;;;;;;;6.53;2.30;;;;;;;28.70;40.38;99659.84;4478809;32;33390;-85
2023/08/13 08:01:42;;;;;;;5.43;2.87;;;;;;;28.72;38.64;99671.31;4483234;32;33794;-85
2023/08/13 08:04:09;;;;;;;6.65;2.90;;;;;;;28.54;37.70;99658.00;4483483;32;34844;-86
2023/08/13 08:06:37;;;;;;;5.68;2.67;;;;;;;28.60;38.80;99660.34;4483374;32;34599;-83
2023/08/13 08:09:07;;;;;;;4.43;2.30;;;;;;;28.66;37.10;99653.81;4483306;32;33419;-85
2023/08/13 08:11:35;;;;;;;6.35;2.85;;;;;;;28.31;36.82;99650.34;4483353;32;34725;-86
2023/08/13 08:14:03;;;;;;;5.57;2.65;;;;;;;28.30;38.10;99651.28;4483165;32;34092;-86
2023/08/13 08:16:30;;;;;;;6.12;2.28;;;;;;;28.65;39.20;99656.56;4482249;32;34167;-87
2023/08/13 08:18:58;;;;;;;8.05;2.72;;;;;;;28.43;37.09;99651.50;4483311;32;34501;-86
2023/08/13 08:21:25;;;;;;;5.35;2.35;;;;;;;28.65;39.37;99660.09;4483328;32;34800;-85
2023/08/13 08:23:53;;;;;;;5.82;2.70;;;;;;;28.85;36.54;99656.34;4483286;32;34646;-85
2023/08/13 08:26:21;;;;;;;4.78;2.50;;;;;;;28.82;36.96;99652.03;4483216;32;33996;-85
2023/08/13 08:28:48;;;;;;;6.90;2.40;;;;;;;28.75;36.42;99650.66;4482894;32;33836;-86
2023/08/13 08:31:15;;;;;;;5.85;2.47;;;;;;;28.96;35.87;99656.63;4482841;32;34309;-85
2023/08/13 08:33:43;;;;;;;4.93;2.67;;;;;;;28.78;36.81;99660.28;4483206;32;34285;-86
2023/08/13 08:36:11;;;;;;;6.57;2.17;;;;;;;28.64;37.06;99660.16;4482967;32;33414;-85
2023/08/13 08:38:38;;;;;;;7.40;2.53;;;;;;;27.87;36.79;99657.00;4482852;32;34244;-84
2023/08/13 08:41:07;;;;;;;5.60;2.25;;;;;;;28.31;37.65;99663.66;4483262;32;33980;-85
2023/08/13 08:43:38;;;;;;;3.95;2.10;;;;;;;28.46;37.34;99654.03;4481601;32;34977;-86
2023/08/13 08:46:06;;;;;;;5.45;2.35;;;;;;;28.20;38.19;99663.34;4482968;32;33858;-86
2023/08/13 08:48:34;;;;;;;4.72;2.00;;;;;;;28.43;37.80;99660.38;4476503;32;34089;-83
2023/08/13 08:51:01;;;;;;;5.45;2.35;;;;;;;28.56;35.06;99652.56;4465990;32;33735;-86
2023/08/13 08:53:31;;;;;;;4.18;2.20;;;;;;;28.83;36.90;99644.91;4466827;32;34900;-84
2023/08/13 08:55:59;;;;;;;6.53;2.50;;;;;;;28.82;36.94;99653.84;4481427;32;33841;-84
2023/08/13 08:58:27;;;;;;;7.30;2.50;;;;;;;28.74;35.02;99654.25;4481279;32;34147;-84
2023/08/13 09:01:00;;;;;;;5.68;2.58;;;;;;;28.96;35.81;99645.94;4481644;32;34695;-84
2023/08/13 09:03:28;;;;;;;6.10;2.72;;;;;;;28.84;36.40;99643.94;4482333;32;34850;-85
2023/08/13 09:05:56;;;;;;;7.43;2.95;;;;;;;28.82;35.27;99633.34;4482622;32;34517;-85
2023/08/13 09:08:38;;;;;;;5.25;3.30;;;;;;;28.15;36.48;99642.28;4482309;32;33325;-83
2023/08/13 09:11:06;;;;;;;6.00;2.70;;;;;;;28.46;37.36;99628.22;4481779;32;33981;-86
2023/08/13 09:13:34;;;;;;;6.03;2.80;;;;;;;28.56;36.90;99634.78;4482661;32;34977;-87
2023/08/13 09:16:01;;;;;;;5.40;2.80;;;;;;;28.63;37.34;99624.62;4483298;32;34162;-85
2023/08/13 09:18:41;;;;;;;6.55;3.72;;;;;;;28.43;37.06;99633.69;4483179;32;32911;-85
2023/08/13 09:21:09;;;;;;;5.72;2.92;;;;;;;28.45;38.82;99630.94;4483943;32;33461;-82
2023/08/13 09:23:38;;;;;;;6.22;2.72;;;;;;;28.55;37.17;99630.38;4484563;32;33731;-84
2023/08/13 09:26:05;;;;;;;7.50;2.90;;;;;;;28.72;37.91;99625.94;4484172;32;33777;-84
2023/08/13 09:28:33;;;;;;;7.07;3.17;;;;;;;28.80;38.59;99634.41;4484149;32;34122;-84
2023/08/13 09:31:01;;;;;;;5.70;2.80;;;;;;;28.86;37.13;99631.38;4483900;32;34777;-86
2023/08/13 09:33:29;;;;;;;7.68;3.20;;;;;;;28.81;36.28;99622.75;4483073;32;34196;-84
2023/08/13 09:35:56;;;;;;;6.00;2.85;;;;;;;29.00;36.01;99628.84;4484162;32;33502;-85
2023/08/13 09:38:24;;;;;;;7.78;3.87;;;;;;;29.04;36.78;99641.06;4484179;32;33526;-85
2023/08/13 09:40:52;;;;;;;6.93;3.67;;;;;;;29.29;36.36;99634.34;4484113;32;33919;-86
2023/08/13 09:43:21;;;;;;;5.87;3.35;;;;;;;29.38;35.32;99633.81;4484228;32;33636;-87
2023/08/13 09:45:50;;;;;;;7.05;3.67;;;;;;;29.40;35.59;99629.25;4483221;32;33951;-84
2023/08/13 09:48:21;;;;;;;6.55;2.75;;;;;;;29.07;38.02;99634.69;4482269;32;34322;-86
2023/08/13 09:50:50;;;;;;;6.22;2.90;;;;;;;29.19;34.87;99630.47;4482743;32;34653;-85
2023/08/13 09:53:20;;;;;;;6.05;3.22;;;;;;;29.27;35.07;99622.88;4482878;32;34204;-85
2023/08/13 09:55:53;;;;;;;7.57;3.83;;;;;;;28.88;35.85;99628.63;4475063;32;35007;-84
2023/08/13 09:58:20;;;;;;;4.78;3.10;;;;;;;28.77;36.48;99630.06;4475227;32;34404;-84
2023/08/13 10:00:49;;;;;;;6.18;3.15;;;;;;;28.96;36.23;99621.91;4482693;32;33245;-88
2023/08/13 10:03:18;;;;;;;5.80;2.95;;;;;;;28.78;38.37;99620.25;4482564;32;34095;-86
2023/08/13 10:05:46;;;;;;;6.35;2.80;;;;;;;28.88;37.05;99621.47;4483605;32;34887;-85
2023/08/13 10:08:13;;;;;;;7.78;2.60;;;;;;;29.13;35.89;99618.31;4484119;32;34282;-88
2023/08/13 10:10:41;;;;;;;5.00;2.42;;;;;;;29.15;34.77;99620.91;4482340;32;33924;-84
2023/08/13 10:13:09;;;;;;;13.43;2.35;;;;;;;29.38;34.54;99615.13;4481300;32;33817;-84
2023/08/13 10:15:38;;;;;;;6.05;2.85;;;;;;;29.34;34.83;99616.25;4482822;32;33330;-84
2023/08/13 10:18:06;;;;;;;5.97;2.87;;;;;;;29.50;34.71;99618.88;4482473;32;34793;-84
2023/08/13 10:20:34;;;;;;;4.30;2.50;;;;;;;29.34;35.25;99621.59;4483854;32;33735;-87
2023/08/13 10:23:03;;;;;;;5.45;2.37;;;;;;;29.54;33.94;99618.63;4483755;32;33875;-84
2023/08/13 10:25:35;;;;;;;7.30;2.62;;;;;;;29.40;33.51;99615.03;4482744;32;33983;-84
2023/08/13 10:28:22;;;;;;;5.37;2.10;;;;;;;29.14;35.89;99619.19;4483711;32;34120;-84
2023/08/13 10:31:20;;;;;;;9.68;2.50;;;;;;;29.53;34.31;99613.37;4481806;32;34664;-85
2023/08/13 10:33:47;;;;;;;5.72;2.45;;;;;;;29.38;33.55;99612.44;4482305;32;34895;-84
2023/08/13 10:36:15;;;;;;;6.60;2.28;;;;;;;29.45;33.99;99619.16;4483808;32;33925;-83
2023/08/13 10:38:43;;;;;;;9.15;3.40;;;;;;;29.29;33.58;99613.00;4482319;32;34297;-84
2023/08/13 10:41:10;;;;;;;9.63;3.05;;;;;;;29.09;34.00;99609.66;4483323;32;34500;-84
2023/08/13 10:43:38;;;;;;;6.70;3.05;;;;;;;29.48;34.94;99616.31;4483569;32;33777;-85
2023/08/13 10:46:05;;;;;;;4.30;2.35;;;;;;;29.85;35.59;99611.50;4483869;32;34886;-84
2023/08/13 10:48:33;;;;;;;5.65;2.30;;;;;;;29.83;33.83;99608.06;4482630;32;33190;-89
2023/08/13 10:51:01;;;;;;;8.00;2.70;;;;;;;29.88;33.39;99608.62;4483897;32;35164;-84
2023/08/13 10:53:28;;;;;;;5.28;2.67;;;;;;;29.76;33.05;99609.38;4484110;32;33806;-87
2023/08/13 10:55:59;;;;;;;5.75;2.70;;;;;;;29.70;34.25;99604.37;4483994;32;34594;-83
2023/08/13 10:58:29;;;;;;;7.35;3.60;;;;;;;29.98;32.32;99604.47;4483439;32;33527;-90
2023/08/13 11:00:59;;;;;;;4.85;2.55;;;;;;;29.92;33.52;99601.28;4482470;32;33596;-86
2023/08/13 11:03:31;;;;;;;5.35;2.47;;;;;;;30.22;33.63;99593.25;4483886;32;33650;-85
2023/08/13 11:05:59;;;;;;;5.87;2.67;;;;;;;30.20;34.59;99596.03;4483982;32;34633;-90
2023/08/13 11:08:26;;;;;;;5.12;2.80;;;;;;;30.46;35.38;99589.06;4474142;32;33135;-87
2023/08/13 11:11:17;;;;;;;4.75;2.17;;;;;;;30.69;32.48;99587.63;4467902;32;34937;-88
2023/08/13 11:13:46;;;;;;;5.60;2.37;;;;;;;30.72;33.13;99581.19;4466629;32;34877;-88
2023/08/13 11:16:14;;;;;;;6.22;2.80;;;;;;;30.81;32.21;99587.84;4468196;32;34049;-85
2023/08/13 11:18:41;;;;;;;4.70;2.45;;;;;;;30.64;31.12;99579.00;4466980;32;34225;-87
2023/08/13 11:21:09;;;;;;;4.70;2.45;;;;;;;30.37;32.44;99586.97;4479445;32;33959;-85
2023/08/13 11:23:37;;;;;;;5.15;2.12;;;;;;;30.63;31.32;99585.31;4483978;32;34204;-85
2023/08/13 11:26:07;;;;;;;5.95;2.10;;;;;;;30.69;32.90;99592.97;4483689;32;33566;-87
2023/08/13 11:28:35;;;;;;;5.12;2.20;;;;;;;30.35;31.65;99577.34;4483828;32;33527;-86
2023/08/13 11:31:03;;;;;;;8.10;2.37;;;;;;;30.61;31.49;99578.34;4483775;32;34825;-87
2023/08/13 11:33:31;;;;;;;6.10;2.12;;;;;;;30.64;32.58;99589.72;4482917;32;34143;-84
2023/08/13 11:35:58;;;;;;;4.80;2.33;;;;;;;30.42;30.69;99571.50;4483409;32;34140;-87
2023/08/13 11:38:26;;;;;;;4.50;1.95;;;;;;;30.30;31.48;99577.59;4483390;32;34427;-85
2023/08/13 11:40:54;;;;;;;4.65;2.12;;;;;;;30.46;31.87;99570.34;4482372;32;33592;-86